Time,TemperatureF,DewpointF,PressureIn,WindDirection,WindDirectionDegrees,WindSpeedMPH,WindSpeedGustMPH,Humidity,HourlyPrecipIn,Conditions,Clouds,dailyrainin,SolarRadiationWatts/m^2,SoftwareType,DateUTC
2013-05-20 00:01:00,43.0,38.0,-100.00,East,91,0.0,0.0,83,0.00,,,0.00,0.000000,,2013-05-20 07:01:00,
2013-05-20 00:32:00,41.0,36.0,-100.00,ESE,122,0.0,0.0,82,0.00,,,0.00,0.000000,,2013-05-20 07:32:00,
2013-05-20 00:42:00,41.0,36.0,-100.00,ESE,122,0.0,0.0,82,0.00,,,0.00,0.000000,,2013-05-20 07:42:00,
2013-05-20 00:52:00,41.0,36.0,-100.00,ESE,122,0.0,0.0,82,0.00,,,0.00,0.000000,,2013-05-20 07:52:00,
2013-05-20 01:01:00,41.0,36.0,-100.00,ESE,122,0.0,0.0,82,0.00,,,0.00,0.000000,,2013-05-20 08:01:00,
2013-05-20 01:32:00,43.0,38.0,-100.00,ESE,121,0.0,0.0,82,0.00,,,0.00,0.000000,,2013-05-20 08:32:00,
2013-05-20 01:42:00,43.0,38.0,-100.00,ESE,121,0.0,0.0,82,0.00,,,0.00,0.000000,,2013-05-20 08:42:00,
2013-05-20 01:52:00,43.0,38.0,-100.00,ESE,121,0.0,0.0,82,0.00,,,0.00,0.000000,,2013-05-20 08:52:00,
2013-05-20 02:01:00,43.0,38.0,-100.00,ESE,121,0.0,0.0,82,0.00,,,0.00,0.000000,,2013-05-20 09:01:00,
2013-05-20 02:33:00,41.0,35.0,-100.00,SE,130,0.0,0.0,79,0.00,,,0.00,0.000000,,2013-05-20 09:33:00,
2013-05-20 02:43:00,41.0,35.0,-100.00,SE,130,0.0,0.0,79,0.00,,,0.00,0.000000,,2013-05-20 09:43:00,
2013-05-20 02:52:00,41.0,35.0,-100.00,SE,130,0.0,0.0,79,0.00,,,0.00,0.000000,,2013-05-20 09:52:00,
2013-05-20 03:03:00,41.0,35.0,-100.00,SE,130,0.0,0.0,79,0.00,,,0.00,0.000000,,2013-05-20 10:03:00,
2013-05-20 03:33:00,40.0,36.0,-100.00,SSE,152,0.0,0.0,84,0.00,,,0.00,0.000000,,2013-05-20 10:33:00,
2013-05-20 03:42:00,40.0,36.0,-100.00,SSE,152,0.0,0.0,84,0.00,,,0.00,0.000000,,2013-05-20 10:42:00,
2013-05-20 03:52:00,40.0,36.0,-100.00,SSE,152,0.0,0.0,84,0.00,,,0.00,0.000000,,2013-05-20 10:52:00,
2013-05-20 04:02:00,40.0,36.0,-100.00,SSE,152,0.0,0.0,84,0.00,,,0.00,0.000000,,2013-05-20 11:02:00,
2013-05-20 04:32:00,39.0,35.0,-100.00,SE,128,0.0,0.0,85,0.00,,,0.00,0.000000,,2013-05-20 11:32:00,
2013-05-20 04:42:00,39.0,35.0,-100.00,SE,128,0.0,0.0,85,0.00,,,0.00,0.000000,,2013-05-20 11:42:00,
2013-05-20 04:52:00,39.0,35.0,-100.00,SE,128,0.0,0.0,85,0.00,,,0.00,0.000000,,2013-05-20 11:52:00,
2013-05-20 05:01:00,39.0,35.0,-100.00,SE,128,0.0,0.0,85,0.00,,,0.00,0.000000,,2013-05-20 12:01:00,
2013-05-20 05:32:00,40.0,35.0,-100.00,South,178,0.0,0.0,82,0.00,,,0.00,0.000000,,2013-05-20 12:32:00,
2013-05-20 05:42:00,40.0,35.0,-100.00,South,178,0.0,0.0,82,0.00,,,0.00,0.000000,,2013-05-20 12:42:00,
2013-05-20 05:52:00,40.0,35.0,-100.00,South,178,0.0,0.0,82,0.00,,,0.00,0.000000,,2013-05-20 12:52:00,
2013-05-20 06:01:00,40.0,35.0,-100.00,South,178,0.0,0.0,82,0.00,,,0.00,0.000000,,2013-05-20 13:01:00,
2013-05-20 07:32:00,51.0,39.0,-100.00,SSE,150,0.0,0.0,63,-99.99,,,0.00,249.000000,,2013-05-20 14:32:00,
2013-05-20 08:33:00,54.0,40.0,-100.00,SSE,152,0.0,0.0,58,-99.99,,,0.00,361.000000,,2013-05-20 15:33:00,
2013-05-20 09:33:00,59.0,42.0,-100.00,ESE,103,0.0,0.0,54,-99.99,,,0.00,712.000000,,2013-05-20 16:33:00,
2013-05-20 10:02:00,59.0,42.0,-100.00,ESE,103,0.0,0.0,54,-99.99,,,0.00,712.000000,,2013-05-20 17:02:00,
2013-05-20 10:33:00,60.0,43.0,-100.00,WSW,253,0.0,0.0,53,0.00,,,0.00,901.000000,,2013-05-20 17:33:00,
2013-05-20 10:45:00,60.0,43.0,-100.00,WSW,253,0.0,0.0,53,0.00,,,0.00,901.000000,,2013-05-20 17:45:00,
2013-05-20 10:53:00,60.0,43.0,-100.00,WSW,253,0.0,0.0,53,0.00,,,0.00,901.000000,,2013-05-20 17:53:00,
2013-05-20 11:02:00,60.0,43.0,-100.00,WSW,253,0.0,0.0,53,0.00,,,0.00,901.000000,,2013-05-20 18:02:00,
2013-05-20 11:33:00,65.0,37.0,-100.00,ENE,69,0.0,0.0,36,0.00,,,0.00,1058.000000,,2013-05-20 18:33:00,
2013-05-20 11:42:00,65.0,37.0,-100.00,ENE,69,0.0,0.0,36,0.00,,,0.00,1058.000000,,2013-05-20 18:42:00,
2013-05-20 11:55:00,65.0,37.0,-100.00,ENE,69,0.0,0.0,36,0.00,,,0.00,1058.000000,,2013-05-20 18:55:00,
2013-05-20 12:04:00,65.0,37.0,-100.00,ENE,69,0.0,0.0,36,0.00,,,0.00,1058.000000,,2013-05-20 19:04:00,
2013-05-20 13:32:00,64.0,34.0,-100.00,West,272,0.0,0.0,33,-99.99,,,0.00,1171.000000,,2013-05-20 20:32:00,
2013-05-20 13:42:00,64.0,34.0,-100.00,West,272,0.0,0.0,33,-99.99,,,0.00,1171.000000,,2013-05-20 20:42:00,
2013-05-20 13:52:00,64.0,34.0,-100.00,West,272,0.0,0.0,33,-99.99,,,0.00,1171.000000,,2013-05-20 20:52:00,
2013-05-20 14:01:00,64.0,34.0,-100.00,West,272,0.0,0.0,33,-99.99,,,0.00,1171.000000,,2013-05-20 21:01:00,
2013-05-20 15:33:00,67.0,36.0,-100.00,SW,232,0.0,0.0,32,-99.99,,,0.00,1219.000000,,2013-05-20 22:33:00,
2013-05-20 15:42:00,67.0,36.0,-100.00,SW,232,0.0,0.0,32,-99.99,,,0.00,1219.000000,,2013-05-20 22:42:00,
2013-05-20 15:52:00,67.0,36.0,-100.00,SW,232,0.0,0.0,32,-99.99,,,0.00,1219.000000,,2013-05-20 22:52:00,
2013-05-20 16:02:00,67.0,36.0,-100.00,SW,232,0.0,0.0,32,-99.99,,,0.00,1219.000000,,2013-05-20 23:02:00,
2013-05-20 16:32:00,72.0,36.0,-100.00,NNE,33,0.0,0.0,27,0.00,,,0.00,901.000000,,2013-05-20 23:32:00,
2013-05-20 16:42:00,72.0,36.0,-100.00,NNE,33,0.0,0.0,27,0.00,,,0.00,901.000000,,2013-05-20 23:42:00,
2013-05-20 16:53:00,72.0,36.0,-100.00,NNE,33,0.0,0.0,27,0.00,,,0.00,901.000000,,2013-05-20 23:53:00,
2013-05-20 17:01:00,72.0,36.0,-100.00,NNE,33,0.0,0.0,27,0.00,,,0.00,901.000000,,2013-05-21 00:01:00,
2013-05-20 17:32:00,70.0,34.0,-100.00,West,265,0.0,0.0,26,0.00,,,0.00,704.000000,,2013-05-21 00:32:00,
2013-05-20 17:42:00,70.0,34.0,-100.00,West,265,0.0,0.0,26,0.00,,,0.00,704.000000,,2013-05-21 00:42:00,
2013-05-20 17:52:00,70.0,34.0,-100.00,West,265,0.0,0.0,26,0.00,,,0.00,704.000000,,2013-05-21 00:52:00,
2013-05-20 18:01:00,70.0,34.0,-100.00,West,265,0.0,0.0,26,0.00,,,0.00,704.000000,,2013-05-21 01:01:00,
2013-05-20 18:32:00,69.0,41.0,-100.00,ENE,72,0.0,0.0,36,0.00,,,0.00,481.000000,,2013-05-21 01:32:00,
2013-05-20 18:42:00,69.0,41.0,-100.00,ENE,72,0.0,0.0,36,0.00,,,0.00,481.000000,,2013-05-21 01:42:00,
2013-05-20 18:52:00,69.0,41.0,-100.00,ENE,72,0.0,0.0,36,0.00,,,0.00,481.000000,,2013-05-21 01:52:00,
2013-05-20 19:01:00,69.0,41.0,-100.00,ENE,72,0.0,0.0,36,0.00,,,0.00,481.000000,,2013-05-21 02:01:00,
2013-05-20 19:32:00,67.0,42.0,-100.00,South,191,0.0,0.0,40,0.00,,,0.00,248.000000,,2013-05-21 02:32:00,
2013-05-20 19:42:00,67.0,42.0,-100.00,South,191,0.0,0.0,40,0.00,,,0.00,248.000000,,2013-05-21 02:42:00,
2013-05-20 19:52:00,67.0,42.0,-100.00,South,191,0.0,0.0,40,0.00,,,0.00,248.000000,,2013-05-21 02:52:00,
2013-05-20 20:02:00,67.0,42.0,-100.00,South,191,0.0,0.0,40,0.00,,,0.00,248.000000,,2013-05-21 03:02:00,
2013-05-20 20:33:00,59.0,44.0,-100.00,East,94,0.0,0.0,57,0.00,,,0.00,16.000000,,2013-05-21 03:33:00,
2013-05-20 20:43:00,59.0,44.0,-100.00,East,94,0.0,0.0,57,0.00,,,0.00,16.000000,,2013-05-21 03:43:00,
2013-05-20 20:53:00,59.0,44.0,-100.00,East,94,0.0,0.0,57,0.00,,,0.00,16.000000,,2013-05-21 03:53:00,
2013-05-20 21:03:00,59.0,44.0,-100.00,East,94,0.0,0.0,57,0.00,,,0.00,16.000000,,2013-05-21 04:03:00,
2013-05-20 21:33:00,55.0,45.0,-100.00,SE,127,0.0,0.0,68,0.00,,,0.00,0.000000,,2013-05-21 04:33:00,
2013-05-20 21:42:00,55.0,45.0,-100.00,SE,127,0.0,0.0,68,0.00,,,0.00,0.000000,,2013-05-21 04:42:00,
2013-05-20 21:53:00,55.0,45.0,-100.00,SE,127,0.0,0.0,68,0.00,,,0.00,0.000000,,2013-05-21 04:53:00,
2013-05-20 22:02:00,55.0,45.0,-100.00,SE,127,0.0,0.0,68,0.00,,,0.00,0.000000,,2013-05-21 05:02:00,
2013-05-20 22:32:00,49.0,43.0,-100.00,WSW,239,0.0,0.0,80,0.00,,,0.00,0.000000,,2013-05-21 05:32:00,
2013-05-20 22:42:00,49.0,43.0,-100.00,WSW,239,0.0,0.0,80,0.00,,,0.00,0.000000,,2013-05-21 05:42:00,
2013-05-20 22:52:00,49.0,43.0,-100.00,WSW,239,0.0,0.0,80,0.00,,,0.00,0.000000,,2013-05-21 05:52:00,
2013-05-20 23:02:00,49.0,43.0,-100.00,WSW,239,0.0,0.0,80,0.00,,,0.00,0.000000,,2013-05-21 06:02:00,
2013-05-20 23:32:00,48.0,41.0,-100.00,South,173,0.0,0.0,77,0.00,,,0.00,0.000000,,2013-05-21 06:32:00,
2013-05-20 23:42:00,48.0,41.0,-100.00,South,173,0.0,0.0,77,0.00,,,0.00,0.000000,,2013-05-21 06:42:00,
2013-05-20 23:52:00,48.0,41.0,-100.00,South,173,0.0,0.0,77,0.00,,,0.00,0.000000,,2013-05-21 06:52:00,